Time;durP1;ratioP1;P1;durP2;ratioP2;P2;SDS_P1;SDS_P2;PMS_P1;PMS_P2;Temp;Humidity;BMP_temperature;BMP_pressure;BME280_temperature;BME280_humidity;BME280_pressure;Samples;Min_cycle;Max_cycle;Signal;HPM_P1;HPM_P2
2022/08/18 00:00:45;;;;;;;23.47;15.23;;;;;;;;;;5050460;28;20249;-79
2022/08/18 00:03:13;;;;;;;22.40;16.37;;;;;;;;;;5047645;28;20271;-78
2022/08/18 00:05:42;;;;;;;23.90;16.07;;;;;;;;;;5054978;28;20223;-79
2022/08/18 00:08:09;;;;;;;25.13;16.50;;;;;;;;;;5051933;28;20203;-78
2022/08/18 00:10:36;;;;;;;21.67;15.57;;;;;;;;;;5055876;28;20254;-79
2022/08/18 00:13:03;;;;;;;21.77;16.23;;;;;;;;;;5056099;28;20211;-79
2022/08/18 00:15:30;;;;;;;23.37;15.73;;;;;;;;;;5053813;28;20275;-80
2022/08/18 00:17:58;;;;;;;21.80;15.07;;;;;;;;;;5055554;28;20226;-79
2022/08/18 00:20:25;;;;;;;22.00;15.20;;;;;;;;;;5054761;28;20266;-79
2022/08/18 00:22:55;;;;;;;26.53;16.93;;;;;;;;;;5049709;28;20703;-79
2022/08/18 00:25:22;;;;;;;24.10;15.80;;;;;;;;;;5049777;28;20226;-79
2022/08/18 00:27:50;;;;;;;24.37;16.50;;;;;;;;;;5052877;28;20621;-79
2022/08/18 00:30:18;;;;;;;22.27;16.67;;;;;;;;;;5045873;28;20314;-79
2022/08/18 00:32:47;;;;;;;22.43;15.70;;;;;;;;;;5049848;28;20199;-79
2022/08/18 00:35:19;;;;;;;23.03;16.40;;;;;;;;;;5049976;28;20205;-78
2022/08/18 00:37:47;;;;;;;24.90;16.13;;;;;;;;;;5050248;28;20202;-79
2022/08/18 00:40:17;;;;;;;22.73;16.53;;;;;;;;;;5049750;28;20228;-80
2022/08/18 00:42:48;;;;;;;21.63;15.37;;;;;;;;;;5053679;28;20278;-78
2022/08/18 00:45:19;;;;;;;20.67;15.57;;;;;;;;;;5049721;28;20662;-78
2022/08/18 00:47:46;;;;;;;22.33;16.07;;;;;;;;;;5048686;28;20221;-78
2022/08/18 00:50:15;;;;;;;21.97;15.90;;;;;;;;;;5053437;28;20245;-79
2022/08/18 00:52:42;;;;;;;23.37;16.60;;;;;;;;;;5055821;28;20290;-79
2022/08/18 00:55:09;;;;;;;22.37;15.83;;;;;;;;;;5050683;28;20199;-79
2022/08/18 00:57:38;;;;;;;26.83;15.37;;;;;;;;;;5052497;28;20301;-79
2022/08/18 01:00:10;;;;;;;23.60;16.13;;;;;;;;;;5051239;28;20226;-79
2022/08/18 01:02:40;;;;;;;25.17;15.07;;;;;;;;;;5046477;28;20218;-79
2022/08/18 01:05:09;;;;;;;24.20;16.43;;;;;;;;;;5050500;28;20219;-79
2022/08/18 01:07:39;;;;;;;21.97;15.77;;;;;;;;;;5053671;28;20199;-81
2022/08/18 01:10:06;;;;;;;22.53;15.90;;;;;;;;;;5054476;28;20234;-79
2022/08/18 01:12:33;;;;;;;22.77;16.47;;;;;;;;;;5050470;28;20204;-79
2022/08/18 01:15:02;;;;;;;25.57;16.87;;;;;;;;;;5052920;28;20222;-79
2022/08/18 01:23:08;;;;;;;23.63;17.83;;;;;;;;;;5049103;28;20210;-78
2022/08/18 01:28:22;;;;;;;24.10;17.07;;;;;;;;;;5048555;28;20236;-80
2022/08/18 01:30:50;;;;;;;24.37;16.97;;;;;;;;;;5051082;28;20604;-79
2022/08/18 01:33:18;;;;;;;23.67;17.37;;;;;;;;;;5054687;28;20206;-80
2022/08/18 01:35:48;;;;;;;26.90;17.20;;;;;;;;;;5056321;28;20226;-80
2022/08/18 01:38:17;;;;;;;25.43;17.90;;;;;;;;;;5055551;28;20209;-79
2022/08/18 01:40:45;;;;;;;24.87;17.37;;;;;;;;;;5055049;28;20269;-79
2022/08/18 01:43:12;;;;;;;25.60;17.30;;;;;;;;;;5057935;28;20199;-79
2022/08/18 01:45:40;;;;;;;29.23;17.27;;;;;;;;;;5054824;28;20314;-80
2022/08/18 01:48:07;;;;;;;27.93;18.37;;;;;;;;;;5052732;28;20208;-80
2022/08/18 01:50:34;;;;;;;27.97;19.57;;;;;;;;;;5053268;28;20313;-79
2022/08/18 01:53:04;;;;;;;30.17;17.67;;;;;;;;;;5055637;28;20211;-78
2022/08/18 01:55:33;;;;;;;26.90;18.37;;;;;;;;;;5052421;28;20195;-79
2022/08/18 01:58:00;;;;;;;26.53;18.80;;;;;;;;;;5048996;28;20298;-80
2022/08/18 02:00:28;;;;;;;26.43;17.97;;;;;;;;;;5053483;28;20402;-80
2022/08/18 02:02:55;;;;;;;25.43;17.43;;;;;;;;;;5051285;28;20214;-80
2022/08/18 02:05:25;;;;;;;26.47;18.77;;;;;;;;;;5052274;28;20717;-79
2022/08/18 02:07:52;;;;;;;25.03;16.63;;;;;;;;;;5050293;28;20206;-80
2022/08/18 02:10:19;;;;;;;27.53;17.43;;;;;;;;;;5054342;28;20270;-79
2022/08/18 02:12:48;;;;;;;26.47;17.67;;;;;;;;;;5052015;28;20775;-79
2022/08/18 02:15:15;;;;;;;31.87;18.03;;;;;;;;;;5053289;28;20201;-79
2022/08/18 02:17:43;;;;;;;30.70;18.73;;;;;;;;;;5050340;28;20672;-79
2022/08/18 02:20:13;;;;;;;24.83;17.27;;;;;;;;;;5051445;28;20290;-79
2022/08/18 02:22:40;;;;;;;26.57;17.93;;;;;;;;;;5044806;28;20262;-79
2022/08/18 02:25:08;;;;;;;25.03;17.53;;;;;;;;;;5052050;28;20261;-79
2022/08/18 02:27:35;;;;;;;25.83;18.30;;;;;;;;;;5050179;28;20227;-80
2022/08/18 02:30:06;;;;;;;28.17;18.20;;;;;;;;;;5052303;28;20237;-79
2022/08/18 02:32:33;;;;;;;30.40;18.47;;;;;;;;;;5048914;28;20653;-80
2022/08/18 02:35:00;;;;;;;28.90;18.13;;;;;;;;;;5047582;28;20310;-79
2022/08/18 02:37:29;;;;;;;26.13;17.80;;;;;;;;;;5047292;28;20218;-80
2022/08/18 02:39:57;;;;;;;28.83;17.87;;;;;;;;;;5051806;28;20222;-80
2022/08/18 02:42:24;;;;;;;25.87;18.13;;;;;;;;;;5051418;28;20293;-79
2022/08/18 02:44:51;;;;;;;27.87;18.10;;;;;;;;;;5052593;28;20399;-80
2022/08/18 02:47:21;;;;;;;27.70;17.50;;;;;;;;;;5051923;28;20242;-79
2022/08/18 02:49:49;;;;;;;26.20;17.60;;;;;;;;;;5051049;28;20236;-80
2022/08/18 02:52:16;;;;;;;25.90;17.73;;;;;;;;;;5053481;28;20642;-79
2022/08/18 02:54:43;;;;;;;27.40;17.77;;;;;;;;;;5048128;28;20591;-79
2022/08/18 02:57:11;;;;;;;27.33;18.30;;;;;;;;;;5056911;28;20297;-79
2022/08/18 02:59:40;;;;;;;27.07;18.03;;;;;;;;;;5052850;28;20222;-79
2022/08/18 03:02:08;;;;;;;26.83;17.23;;;;;;;;;;5056697;28;20227;-79
2022/08/18 03:04:37;;;;;;;29.63;18.17;;;;;;;;;;5051402;28;20297;-79
2022/08/18 03:07:05;;;;;;;28.33;18.33;;;;;;;;;;5054089;28;20215;-79
2022/08/18 03:09:33;;;;;;;24.03;16.97;;;;;;;;;;5052867;28;20640;-80
2022/08/18 03:12:00;;;;;;;30.63;17.23;;;;;;;;;;5053118;28;20231;-79
2022/08/18 03:14:28;;;;;;;27.23;17.87;;;;;;;;;;5054059;28;20199;-80
2022/08/18 03:16:55;;;;;;;28.23;18.70;;;;;;;;;;5050726;28;20211;-79
2022/08/18 03:19:23;;;;;;;26.13;17.33;;;;;;;;;;5049877;28;20234;-79
2022/08/18 03:21:53;;;;;;;25.60;18.13;;;;;;;;;;5051765;28;20225;-79
2022/08/18 03:24:21;;;;;;;26.23;17.30;;;;;;;;;;5053394;28;20207;-79
2022/08/18 03:26:48;;;;;;;27.80;17.13;;;;;;;;;;5053888;28;20247;-80
2022/08/18 03:29:15;;;;;;;27.03;18.70;;;;;;;;;;5050374;28;20294;-79
2022/08/18 03:31:44;;;;;;;27.87;18.50;;;;;;;;;;5049557;28;20769;-79
2022/08/18 03:34:11;;;;;;;26.70;18.73;;;;;;;;;;5051275;28;20199;-79
2022/08/18 03:36:39;;;;;;;27.57;18.00;;;;;;;;;;5050543;28;20283;-79
2022/08/18 03:39:09;;;;;;;29.40;18.53;;;;;;;;;;5047233;28;20199;-78
2022/08/18 03:41:38;;;;;;;26.80;17.33;;;;;;;;;;5051723;28;20229;-79
2022/08/18 03:44:06;;;;;;;25.53;17.87;;;;;;;;;;5053211;28;20199;-79
2022/08/18 03:46:33;;;;;;;27.83;18.30;;;;;;;;;;5048837;28;20231;-79
2022/08/18 03:49:01;;;;;;;27.47;18.47;;;;;;;;;;5058032;28;20281;-79
2022/08/18 03:51:30;;;;;;;28.23;18.67;;;;;;;;;;5048914;28;20566;-78
2022/08/18 03:53:59;;;;;;;26.20;17.87;;;;;;;;;;5052166;28;20569;-79
2022/08/18 03:56:29;;;;;;;32.87;19.43;;;;;;;;;;5052567;28;20551;-80
2022/08/18 03:58:58;;;;;;;27.37;19.07;;;;;;;;;;5053209;28;20206;-79
2022/08/18 04:01:26;;;;;;;28.50;19.20;;;;;;;;;;5048157;28;20310;-79
2022/08/18 04:03:55;;;;;;;31.63;19.50;;;;;;;;;;5051406;28;20696;-79
2022/08/18 04:06:23;;;;;;;27.97;18.73;;;;;;;;;;5049999;28;20697;-79
2022/08/18 04:08:51;;;;;;;29.40;20.13;;;;;;;;;;5052736;28;20204;-79
2022/08/18 04:11:19;;;;;;;36.20;19.70;;;;;;;;;;5054282;28;21582;-80
2022/08/18 04:13:48;;;;;;;32.47;21.73;;;;;;;;;;5051683;28;20196;-79
2022/08/18 04:16:15;;;;;;;31.17;20.80;;;;;;;;;;5056609;28;20688;-79
2022/08/18 04:18:42;;;;;;;32.53;20.90;;;;;;;;;;5051972;28;20234;-79
2022/08/18 04:21:10;;;;;;;32.93;20.03;;;;;;;;;;5054692;28;20297;-78
2022/08/18 04:23:38;;;;;;;33.33;21.37;;;;;;;;;;5058686;28;20659;-79
2022/08/18 04:26:06;;;;;;;32.70;20.27;;;;;;;;;;5056214;28;20234;-79
2022/08/18 04:28:34;;;;;;;32.83;19.53;;;;;;;;;;5063765;28;20311;-78
2022/08/18 04:31:06;;;;;;;28.93;18.83;;;;;;;;;;5052371;28;20794;-79
2022/08/18 04:33:33;;;;;;;34.87;20.03;;;;;;;;;;5060556;28;20202;-80
2022/08/18 04:36:07;;;;;;;34.20;20.10;;;;;;;;;;5060413;28;20235;-79
2022/08/18 04:38:34;;;;;;;32.23;19.80;;;;;;;;;;5058527;28;20584;-79
2022/08/18 04:41:02;;;;;;;32.97;18.80;;;;;;;;;;5054208;28;20215;-80
2022/08/18 04:43:29;;;;;;;31.97;20.67;;;;;;;;;;5051019;28;20254;-79
2022/08/18 04:46:00;;;;;;;30.33;20.17;;;;;;;;;;5054002;28;20294;-79
2022/08/18 04:48:32;;;;;;;36.87;20.73;;;;;;;;;;5050051;28;20395;-79
2022/08/18 04:50:59;;;;;;;28.30;19.63;;;;;;;;;;5053778;28;20215;-79
2022/08/18 04:56:20;;;;;;;36.10;20.67;;;;;;;;;;5050780;28;20199;-79
2022/08/18 04:58:50;;;;;;;32.07;20.97;;;;;;;;;;5048655;28;20211;-79
2022/08/18 05:01:19;;;;;;;36.10;20.87;;;;;;;;;;5054098;28;20218;-80
2022/08/18 05:03:48;;;;;;;34.50;20.33;;;;;;;;;;5054837;28;20207;-79
2022/08/18 05:06:15;;;;;;;32.07;20.43;;;;;;;;;;5051519;28;20283;-79
2022/08/18 05:08:42;;;;;;;42.23;19.93;;;;;;;;;;5051098;28;20289;-80
2022/08/18 05:11:10;;;;;;;29.90;19.57;;;;;;;;;;5049240;28;20228;-78
2022/08/18 05:13:37;;;;;;;35.37;20.13;;;;;;;;;;5054277;28;20209;-79
2022/08/18 05:16:05;;;;;;;32.57;20.23;;;;;;;;;;5052698;28;20199;-79
2022/08/18 05:18:33;;;;;;;33.97;21.00;;;;;;;;;;5053195;28;20206;-79
2022/08/18 05:21:01;;;;;;;31.37;18.97;;;;;;;;;;5051527;28;20314;-79
2022/08/18 05:23:30;;;;;;;37.03;20.57;;;;;;;;;;5049532;28;20250;-79
2022/08/18 05:25:58;;;;;;;34.37;21.27;;;;;;;;;;5056995;28;20221;-79
2022/08/18 05:28:25;;;;;;;39.93;21.03;;;;;;;;;;5048743;28;20274;-78
2022/08/18 05:30:52;;;;;;;33.30;20.57;;;;;;;;;;5054914;28;20317;-79
2022/08/18 05:33:20;;;;;;;32.43;19.83;;;;;;;;;;5050518;28;20883;-79
2022/08/18 05:35:49;;;;;;;33.93;20.10;;;;;;;;;;5053485;28;20233;-80
2022/08/18 05:38:26;;;;;;;36.10;19.47;;;;;;;;;;5056445;28;20246;-79
2022/08/18 05:41:01;;;;;;;30.00;20.37;;;;;;;;;;5056521;28;20258;-80
2022/08/18 05:43:28;;;;;;;34.40;19.73;;;;;;;;;;5048674;28;20286;-80
2022/08/18 05:45:55;;;;;;;32.37;19.83;;;;;;;;;;5051934;28;20218;-79
2022/08/18 05:48:22;;;;;;;30.53;19.47;;;;;;;;;;5046548;28;20644;-79
2022/08/18 05:50:50;;;;;;;35.43;21.30;;;;;;;;;;5047613;28;20226;-79
2022/08/18 05:53:18;;;;;;;28.33;18.90;;;;;;;;;;5050207;28;20287;-79
2022/08/18 05:58:42;;;;;;;36.53;20.20;;;;;;;;;;5047428;28;20214;-78
2022/08/18 06:01:13;;;;;;;39.73;21.03;;;;;;;;;;5047574;28;20287;-79
2022/08/18 06:03:43;;;;;;;41.93;22.63;;;;;;;;;;5047995;28;20199;-79
2022/08/18 06:06:12;;;;;;;34.77;22.07;;;;;;;;;;5051218;28;20245;-79
2022/08/18 06:08:41;;;;;;;35.27;23.57;;;;;;;;;;5047340;28;20230;-79
2022/08/18 06:11:10;;;;;;;33.87;22.50;;;;;;;;;;5049180;28;20225;-79
2022/08/18 06:13:38;;;;;;;35.73;22.93;;;;;;;;;;5047122;28;20211;-78
2022/08/18 06:16:10;;;;;;;43.47;23.07;;;;;;;;;;5052402;28;20287;-78
2022/08/18 06:18:41;;;;;;;37.43;23.90;;;;;;;;;;5044556;28;20199;-78
2022/08/18 06:21:18;;;;;;;40.30;23.47;;;;;;;;;;5051673;28;20224;-78
2022/08/18 06:23:49;;;;;;;35.23;23.57;;;;;;;;;;5048577;28;20291;-78
2022/08/18 06:26:20;;;;;;;39.53;24.73;;;;;;;;;;5052131;28;20218;-77
2022/08/18 06:28:52;;;;;;;41.07;25.40;;;;;;;;;;5050444;28;20629;-79
2022/08/18 06:31:23;;;;;;;45.33;24.03;;;;;;;;;;5046742;28;20676;-78
2022/08/18 06:33:56;;;;;;;42.17;23.87;;;;;;;;;;5051494;28;20241;-77
2022/08/18 06:36:28;;;;;;;37.93;22.93;;;;;;;;;;5049472;28;20195;-79
2022/08/18 06:39:01;;;;;;;37.57;23.47;;;;;;;;;;5046311;28;20266;-79
2022/08/18 06:41:37;;;;;;;41.13;23.50;;;;;;;;;;5059109;28;20227;-77
2022/08/18 06:44:05;;;;;;;35.57;22.70;;;;;;;;;;5051567;28;20205;-78
2022/08/18 06:46:40;;;;;;;43.50;24.93;;;;;;;;;;5047373;28;20306;-79
2022/08/18 06:49:09;;;;;;;42.57;24.80;;;;;;;;;;5048533;28;20203;-79
2022/08/18 06:51:36;;;;;;;39.00;25.77;;;;;;;;;;5051057;28;20237;-79
2022/08/18 06:54:05;;;;;;;41.07;26.43;;;;;;;;;;5052024;28;20213;-79
2022/08/18 06:56:49;;;;;;;46.07;27.37;;;;;;;;;;5053384;28;20627;-78
2022/08/18 06:59:18;;;;;;;43.87;25.93;;;;;;;;;;5048775;28;20196;-78
2022/08/18 07:01:46;;;;;;;43.90;25.03;;;;;;;;;;5048130;28;20223;-78
2022/08/18 07:04:28;;;;;;;37.03;24.57;;;;;;;;;;5050184;28;20573;-78
2022/08/18 07:06:58;;;;;;;37.53;23.70;;;;;;;;;;5052480;28;20631;-78
2022/08/18 07:09:26;;;;;;;37.13;23.17;;;;;;;;;;5048052;28;20286;-79
2022/08/18 07:12:03;;;;;;;36.60;22.73;;;;;;;;;;5050777;28;20223;-78
2022/08/18 07:14:31;;;;;;;35.77;24.53;;;;;;;;;;5049174;28;20232;-77
2022/08/18 07:17:09;;;;;;;36.07;23.77;;;;;;;;;;5047295;28;20196;-80
2022/08/18 07:19:36;;;;;;;32.27;21.67;;;;;;;;;;5052865;28;20203;-79
2022/08/18 07:22:06;;;;;;;36.03;22.43;;;;;;;;;;5047033;28;20265;-79
2022/08/18 07:24:36;;;;;;;40.60;24.53;;;;;;;;;;5046293;28;20195;-79
2022/08/18 07:27:06;;;;;;;36.50;22.80;;;;;;;;;;5047761;28;20309;-77
2022/08/18 07:29:35;;;;;;;36.93;24.00;;;;;;;;;;5054259;28;20203;-79
2022/08/18 07:32:06;;;;;;;36.37;23.50;;;;;;;;;;5055654;28;20207;-78
2022/08/18 07:34:35;;;;;;;37.07;24.30;;;;;;;;;;5051761;28;20233;-78
2022/08/18 07:37:06;;;;;;;34.20;22.63;;;;;;;;;;5057161;28;20195;-78
2022/08/18 07:39:35;;;;;;;38.13;23.30;;;;;;;;;;5058203;28;20274;-78
2022/08/18 07:42:09;;;;;;;35.57;24.13;;;;;;;;;;5050629;28;20271;-78
2022/08/18 07:44:43;;;;;;;33.67;22.63;;;;;;;;;;5055595;28;20304;-78
2022/08/18 07:47:14;;;;;;;39.30;24.87;;;;;;;;;;5048313;28;21826;-79
2022/08/18 07:49:43;;;;;;;39.30;25.03;;;;;;;;;;5058034;28;20203;-78
2022/08/18 07:52:14;;;;;;;39.67;26.30;;;;;;;;;;5054450;28;20313;-80
2022/08/18 07:54:46;;;;;;;40.03;25.47;;;;;;;;;;5050999;28;20266;-79
2022/08/18 07:57:18;;;;;;;39.43;25.23;;;;;;;;;;5053475;28;20199;-78
2022/08/18 07:59:50;;;;;;;50.10;27.63;;;;;;;;;;5059266;28;20263;-78
2022/08/18 08:02:24;;;;;;;48.40;28.93;;;;;;;;;;5058722;28;20229;-79
2022/08/18 08:04:57;;;;;;;46.77;27.73;;;;;;;;;;5053246;28;20282;-78
2022/08/18 08:07:25;;;;;;;43.80;27.03;;;;;;;;;;5057001;28;20273;-77
2022/08/18 08:09:57;;;;;;;48.33;28.50;;;;;;;;;;5053026;28;20235;-77
2022/08/18 08:12:29;;;;;;;48.90;28.33;;;;;;;;;;5053854;28;20640;-77
2022/08/18 08:15:01;;;;;;;48.93;28.20;;;;;;;;;;5057612;28;20275;-78
2022/08/18 08:17:31;;;;;;;44.80;26.37;;;;;;;;;;5057370;28;20227;-78
2022/08/18 08:20:03;;;;;;;46.50;28.00;;;;;;;;;;5056022;28;20226;-78
2022/08/18 08:22:33;;;;;;;47.47;28.60;;;;;;;;;;5056205;28;20238;-77
2022/08/18 08:25:04;;;;;;;50.43;28.57;;;;;;;;;;5048340;28;20290;-78
2022/08/18 08:27:39;;;;;;;49.60;29.47;;;;;;;;;;5051707;28;20234;-78
2022/08/18 08:30:08;;;;;;;50.47;28.73;;;;;;;;;;5048500;28;20282;-78
2022/08/18 08:32:36;;;;;;;48.63;28.57;;;;;;;;;;5059459;28;20195;-78
2022/08/18 08:35:06;;;;;;;48.50;28.87;;;;;;;;;;5055905;28;20978;-78
2022/08/18 08:37:36;;;;;;;49.40;28.87;;;;;;;;;;5053692;28;20280;-78
2022/08/18 08:40:07;;;;;;;46.57;28.13;;;;;;;;;;5053703;28;20226;-80
2022/08/18 08:42:39;;;;;;;44.70;26.70;;;;;;;;;;5053216;28;20203;-80
2022/08/18 08:45:09;;;;;;;43.77;27.57;;;;;;;;;;5049054;28;20214;-79
2022/08/18 08:47:39;;;;;;;43.93;27.30;;;;;;;;;;5048094;28;20225;-79
2022/08/18 08:50:08;;;;;;;50.23;27.90;;;;;;;;;;5041809;28;20218;-81
2022/08/18 08:52:38;;;;;;;47.97;27.67;;;;;;;;;;5043030;28;21776;-80
2022/08/18 08:55:10;;;;;;;46.23;27.33;;;;;;;;;;5049544;28;20195;-78
2022/08/18 08:57:42;;;;;;;46.80;27.53;;;;;;;;;;5056269;28;20188;-79
2022/08/18 09:00:11;;;;;;;51.17;27.30;;;;;;;;;;5055764;28;20255;-78
2022/08/18 09:02:52;;;;;;;47.53;28.27;;;;;;;;;;5052484;28;20206;-78
2022/08/18 09:05:22;;;;;;;47.27;27.83;;;;;;;;;;5050695;28;20229;-78
2022/08/18 09:08:01;;;;;;;46.97;27.17;;;;;;;;;;5054077;28;20223;-78
2022/08/18 09:10:39;;;;;;;49.47;28.33;;;;;;;;;;5061961;28;20227;-79
2022/08/18 09:13:22;;;;;;;49.97;27.33;;;;;;;;;;5050106;28;20203;-78
2022/08/18 09:16:06;;;;;;;46.60;26.53;;;;;;;;;;5047714;28;20203;-78
2022/08/18 09:18:43;;;;;;;50.73;26.33;;;;;;;;;;5054656;28;20688;-79
2022/08/18 09:21:29;;;;;;;41.37;24.20;;;;;;;;;;5053691;28;20284;-78
2022/08/18 09:24:03;;;;;;;40.73;23.80;;;;;;;;;;5055617;28;20215;-79
2022/08/18 09:26:39;;;;;;;41.77;23.07;;;;;;;;;;5052855;28;20207;-79
2022/08/18 09:29:16;;;;;;;38.37;22.43;;;;;;;;;;5055790;28;20266;-79
2022/08/18 09:31:44;;;;;;;38.13;22.07;;;;;;;;;;5051425;28;20272;-79
2022/08/18 09:34:22;;;;;;;36.33;23.43;;;;;;;;;;5051927;28;20638;-79
2022/08/18 09:36:59;;;;;;;37.53;22.90;;;;;;;;;;5052246;28;20219;-79
2022/08/18 09:42:15;;;;;;;32.07;21.27;;;;;;;;;;5053677;28;20202;-79
2022/08/18 09:45:00;;;;;;;32.87;20.37;;;;;;;;;;5057111;28;20207;-78
2022/08/18 09:47:46;;;;;;;34.63;22.53;;;;;;;;;;5049642;28;20262;-80
2022/08/18 09:50:36;;;;;;;33.53;20.60;;;;;;;;;;5053656;28;20659;-79
2022/08/18 09:56:07;;;;;;;33.07;20.53;;;;;;;;;;5058150;28;20266;-79
2022/08/18 09:58:55;;;;;;;32.20;20.27;;;;;;;;;;5054845;28;20203;-79
2022/08/18 10:01:32;;;;;;;31.47;19.80;;;;;;;;;;5049132;28;20263;-78
2022/08/18 10:04:26;;;;;;;32.00;20.13;;;;;;;;;;5048500;28;20700;-79
2022/08/18 10:06:54;;;;;;;34.00;19.83;;;;;;;;;;5054611;28;20199;-78
2022/08/18 10:09:26;;;;;;;33.43;20.57;;;;;;;;;;5057485;28;20215;-79
2022/08/18 10:11:58;;;;;;;30.73;19.90;;;;;;;;;;5059404;28;20247;-78
2022/08/18 10:14:38;;;;;;;30.70;18.93;;;;;;;;;;5053451;28;20210;-80
2022/08/18 10:17:14;;;;;;;31.53;19.37;;;;;;;;;;5055236;28;20222;-79
2022/08/18 10:19:48;;;;;;;28.63;18.90;;;;;;;;;;5051233;28;20287;-79
2022/08/18 10:22:40;;;;;;;33.10;19.83;;;;;;;;;;5049859;28;20196;-79
2022/08/18 10:25:10;;;;;;;29.03;17.20;;;;;;;;;;5053297;28;20214;-78
2022/08/18 10:27:47;;;;;;;26.93;16.67;;;;;;;;;;5052172;28;20577;-78
2022/08/18 10:30:29;;;;;;;28.40;16.83;;;;;;;;;;5053578;28;20672;-79
2022/08/18 10:32:58;;;;;;;26.97;16.70;;;;;;;;;;5057901;28;20199;-78
2022/08/18 10:35:51;;;;;;;28.37;16.93;;;;;;;;;;5054147;28;20203;-79
2022/08/18 10:38:39;;;;;;;29.37;18.13;;;;;;;;;;5054357;28;20204;-79
2022/08/18 10:41:09;;;;;;;29.50;17.97;;;;;;;;;;5051516;28;20250;-79
2022/08/18 10:43:40;;;;;;;28.63;16.93;;;;;;;;;;5057806;28;20215;-79
2022/08/18 10:46:15;;;;;;;26.10;16.47;;;;;;;;;;5048409;28;20225;-79
2022/08/18 10:48:44;;;;;;;27.47;17.43;;;;;;;;;;5054923;28;20222;-78
2022/08/18 10:51:17;;;;;;;25.43;16.67;;;;;;;;;;5058903;28;20321;-78
2022/08/18 10:53:46;;;;;;;30.27;17.20;;;;;;;;;;5051366;28;20230;-79
2022/08/18 10:56:22;;;;;;;28.63;16.70;;;;;;;;;;5054930;28;20206;-78
2022/08/18 10:59:04;;;;;;;24.47;16.00;;;;;;;;;;5053651;28;20226;-79
2022/08/18 11:01:45;;;;;;;28.17;16.27;;;;;;;;;;5055583;28;20229;-79
2022/08/18 11:04:23;;;;;;;26.77;15.73;;;;;;;;;;5059318;28;20226;-79
2022/08/18 11:06:52;;;;;;;22.43;15.00;;;;;;;;;;5054434;28;20212;-79
2022/08/18 11:09:23;;;;;;;25.83;15.53;;;;;;;;;;5055070;28;20270;-79
2022/08/18 11:11:51;;;;;;;22.50;15.53;;;;;;;;;;5054883;28;20416;-79
2022/08/18 11:14:26;;;;;;;19.70;14.20;;;;;;;;;;5052750;28;20206;-76
2022/08/18 11:16:56;;;;;;;25.67;15.73;;;;;;;;;;5052232;28;20194;-77
2022/08/18 11:19:25;;;;;;;21.03;14.33;;;;;;;;;;5044117;28;20340;-77
2022/08/18 11:21:53;;;;;;;19.93;13.43;;;;;;;;;;5043522;28;20221;-77
2022/08/18 11:24:22;;;;;;;23.93;13.53;;;;;;;;;;5048066;28;20208;-78
2022/08/18 11:26:50;;;;;;;21.30;13.20;;;;;;;;;;5050817;28;20206;-77
2022/08/18 11:29:29;;;;;;;18.87;12.90;;;;;;;;;;5044246;28;20224;-77
2022/08/18 11:35:03;;;;;;;23.33;12.20;;;;;;;;;;5043284;28;20198;-76
2022/08/18 11:37:34;;;;;;;18.63;12.87;;;;;;;;;;5046251;28;20293;-77
2022/08/18 11:40:02;;;;;;;18.47;12.70;;;;;;;;;;5049115;28;20288;-77
2022/08/18 11:42:32;;;;;;;17.43;12.00;;;;;;;;;;5048610;28;20207;-77
2022/08/18 11:45:07;;;;;;;17.93;11.40;;;;;;;;;;5049824;28;20358;-78
2022/08/18 11:47:37;;;;;;;19.63;11.73;;;;;;;;;;5047523;28;20300;-77
2022/08/18 11:50:10;;;;;;;19.13;11.23;;;;;;;;;;5049430;28;20223;-77
2022/08/18 11:52:48;;;;;;;18.97;11.30;;;;;;;;;;5051397;28;20199;-77
2022/08/18 11:55:20;;;;;;;20.60;12.03;;;;;;;;;;5047148;28;20203;-77
2022/08/18 11:57:53;;;;;;;21.27;11.73;;;;;;;;;;5045178;28;20587;-75
2022/08/18 12:00:37;;;;;;;19.73;11.57;;;;;;;;;;5048643;28;20223;-78
2022/08/18 12:03:05;;;;;;;16.73;10.77;;;;;;;;;;5048915;28;20302;-77
2022/08/18 12:05:43;;;;;;;17.07;11.03;;;;;;;;;;5045031;28;20210;-77
2022/08/18 12:08:17;;;;;;;17.20;11.77;;;;;;;;;;5043496;28;20227;-76
2022/08/18 12:10:45;;;;;;;16.77;11.50;;;;;;;;;;5050175;28;20619;-76
2022/08/18 12:13:21;;;;;;;16.57;11.13;;;;;;;;;;5046932;28;20199;-76
2022/08/18 12:15:49;;;;;;;18.30;11.30;;;;;;;;;;5047372;28;20264;-77
2022/08/18 12:18:18;;;;;;;18.77;12.00;;;;;;;;;;5047909;28;20219;-77
2022/08/18 12:20:49;;;;;;;18.90;12.60;;;;;;;;;;5045506;28;20879;-77
2022/08/18 12:23:17;;;;;;;18.60;12.40;;;;;;;;;;5039707;28;20290;-75
2022/08/18 12:25:44;;;;;;;21.67;12.17;;;;;;;;;;5042854;28;20206;-76
2022/08/18 12:28:11;;;;;;;30.53;12.83;;;;;;;;;;5042923;28;20310;-77
2022/08/18 12:30:38;;;;;;;21.47;12.67;;;;;;;;;;5044405;28;20237;-77
2022/08/18 12:33:05;;;;;;;22.73;12.77;;;;;;;;;;5042284;28;20228;-75
2022/08/18 12:35:33;;;;;;;26.20;13.60;;;;;;;;;;5046982;28;20291;-76
2022/08/18 12:38:01;;;;;;;18.97;13.00;;;;;;;;;;5045422;28;20235;-76
2022/08/18 12:40:28;;;;;;;21.67;13.10;;;;;;;;;;5045733;28;20722;-76
2022/08/18 12:42:56;;;;;;;17.30;12.17;;;;;;;;;;5046553;28;20207;-77
2022/08/18 12:45:24;;;;;;;19.03;12.50;;;;;;;;;;5041835;28;20211;-77
2022/08/18 12:47:52;;;;;;;18.07;12.83;;;;;;;;;;5046384;28;20272;-76
2022/08/18 12:50:19;;;;;;;24.73;13.10;;;;;;;;;;5050798;28;20240;-76
2022/08/18 12:52:46;;;;;;;21.53;13.13;;;;;;;;;;5047630;28;20262;-76
2022/08/18 12:55:15;;;;;;;24.33;15.07;;;;;;;;;;5048663;28;20206;-76
2022/08/18 12:57:42;;;;;;;24.93;15.07;;;;;;;;;;5043034;28;20286;-76
2022/08/18 13:00:11;;;;;;;29.33;14.27;;;;;;;;;;5040461;28;20603;-75
2022/08/18 13:02:38;;;;;;;22.57;14.80;;;;;;;;;;5048764;28;20289;-76
2022/08/18 13:05:05;;;;;;;24.17;14.63;;;;;;;;;;5045392;28;20235;-76
2022/08/18 13:07:33;;;;;;;22.23;15.33;;;;;;;;;;5047281;28;20236;-76
2022/08/18 13:10:00;;;;;;;24.77;15.27;;;;;;;;;;5048607;28;20229;-76
2022/08/18 13:12:28;;;;;;;28.87;16.10;;;;;;;;;;5050889;28;20212;-77
2022/08/18 13:14:56;;;;;;;24.53;16.57;;;;;;;;;;5047157;28;20257;-76
2022/08/18 13:17:23;;;;;;;23.27;15.87;;;;;;;;;;5043563;28;20288;-76
2022/08/18 13:19:51;;;;;;;29.63;16.47;;;;;;;;;;5045706;28;20839;-76
2022/08/18 13:22:19;;;;;;;25.17;15.93;;;;;;;;;;5051975;28;20314;-77
2022/08/18 13:24:46;;;;;;;25.07;15.30;;;;;;;;;;5043156;28;20208;-76
2022/08/18 13:27:13;;;;;;;26.17;15.20;;;;;;;;;;5048584;28;20199;-76
2022/08/18 13:29:42;;;;;;;22.87;14.83;;;;;;;;;;5041532;28;20218;-77
2022/08/18 13:32:09;;;;;;;20.53;14.17;;;;;;;;;;5040291;28;20211;-77
2022/08/18 13:34:37;;;;;;;20.20;13.80;;;;;;;;;;5043838;28;20203;-77
2022/08/18 13:37:05;;;;;;;21.30;13.40;;;;;;;;;;5042684;28;20219;-77
2022/08/18 13:39:32;;;;;;;20.47;13.67;;;;;;;;;;5041397;28;20257;-76
2022/08/18 13:41:59;;;;;;;19.53;13.17;;;;;;;;;;5048545;28;20304;-77
2022/08/18 13:44:27;;;;;;;20.80;13.33;;;;;;;;;;5046187;28;20211;-76
2022/08/18 13:46:56;;;;;;;18.13;12.20;;;;;;;;;;5042601;28;20202;-77
2022/08/18 13:49:24;;;;;;;21.13;13.03;;;;;;;;;;5038091;28;20221;-75
2022/08/18 13:51:56;;;;;;;17.30;12.30;;;;;;;;;;5047984;28;20313;-76
2022/08/18 13:54:24;;;;;;;20.20;13.17;;;;;;;;;;5042623;28;20203;-77
2022/08/18 13:56:52;;;;;;;16.30;11.90;;;;;;;;;;5042897;28;20217;-77
2022/08/18 13:59:20;;;;;;;22.70;12.47;;;;;;;;;;5036371;28;20199;-75
2022/08/18 14:01:48;;;;;;;16.70;11.10;;;;;;;;;;5036425;28;20223;-75
2022/08/18 14:04:20;;;;;;;16.40;12.13;;;;;;;;;;5038500;28;20216;-78
2022/08/18 14:06:47;;;;;;;17.27;11.87;;;;;;;;;;5032735;28;20200;-77
2022/08/18 14:09:14;;;;;;;21.27;11.10;;;;;;;;;;5040704;28;20258;-76
2022/08/18 14:11:41;;;;;;;20.13;11.57;;;;;;;;;;5035390;28;20247;-77
2022/08/18 14:14:09;;;;;;;14.40;10.27;;;;;;;;;;5040840;28;20256;-76
2022/08/18 14:16:36;;;;;;;17.63;10.80;;;;;;;;;;5036438;28;20237;-77
2022/08/18 14:27:25;;;;;;;18.97;11.30;;;;;;;;;;5039569;28;20202;-77
2022/08/18 14:29:52;;;;;;;15.83;11.03;;;;;;;;;;5044290;28;20658;-77
2022/08/18 14:32:23;;;;;;;15.93;11.33;;;;;;;;;;5041586;28;20220;-77
2022/08/18 14:34:51;;;;;;;17.93;10.50;;;;;;;;;;5045428;28;20203;-77
2022/08/18 14:37:20;;;;;;;16.47;11.27;;;;;;;;;;5036434;28;20199;-76
2022/08/18 14:39:47;;;;;;;15.83;11.67;;;;;;;;;;5038473;28;20206;-75
2022/08/18 14:42:15;;;;;;;19.40;11.00;;;;;;;;;;5039745;28;20329;-76
2022/08/18 14:44:42;;;;;;;15.70;11.17;;;;;;;;;;5041525;28;20207;-75
2022/08/18 14:47:09;;;;;;;17.07;11.00;;;;;;;;;;5037462;28;20235;-76
2022/08/18 14:49:38;;;;;;;16.67;11.80;;;;;;;;;;5031726;28;20253;-77
2022/08/18 14:52:06;;;;;;;16.90;11.60;;;;;;;;;;5041311;28;20200;-76
2022/08/18 14:54:35;;;;;;;18.80;11.30;;;;;;;;;;5038566;28;20204;-77
2022/08/18 14:57:02;;;;;;;16.63;11.30;;;;;;;;;;5045455;28;20214;-78
2022/08/18 14:59:30;;;;;;;15.80;11.33;;;;;;;;;;5042075;28;20611;-78
2022/08/18 15:01:57;;;;;;;15.27;11.37;;;;;;;;;;5042435;28;20318;-78
2022/08/18 15:04:26;;;;;;;20.30;12.33;;;;;;;;;;5036395;28;20253;-77